Time;durP1;ratioP1;P1;durP2;ratioP2;P2;SDS_P1;SDS_P2;PMS_P1;PMS_P2;Temp;Humidity;BMP_temperature;BMP_pressure;BME280_temperature;BME280_humidity;BME280_pressure;Samples;Min_cycle;Max_cycle;Signal;HPM_P1;HPM_P2
2021/07/09 00:02:35;;;;;;;8.63;7.28;;;13.70;68.80;;;;;;4957219;28;96421;-55
2021/07/09 00:05:05;;;;;;;9.73;7.37;;;13.80;69.30;;;;;;4959057;28;96033;-55
2021/07/09 00:07:36;;;;;;;8.60;7.65;;;13.80;69.40;;;;;;4963445;28;96062;-56
2021/07/09 00:10:07;;;;;;;8.70;6.85;;;13.90;69.30;;;;;;4957391;28;96603;-56
2021/07/09 00:12:37;;;;;;;7.85;6.80;;;13.90;69.60;;;;;;4961251;28;95853;-58
2021/07/09 00:15:07;;;;;;;7.75;6.88;;;13.90;69.30;;;;;;4967638;28;98871;-56
2021/07/09 00:17:38;;;;;;;7.47;6.07;;;14.00;69.40;;;;;;4959617;28;95359;-57
2021/07/09 00:20:10;;;;;;;9.88;7.53;;;14.00;69.00;;;;;;4959341;28;95443;-53
2021/07/09 00:22:40;;;;;;;7.47;6.72;;;14.10;68.60;;;;;;4963308;28;95942;-57
2021/07/09 00:25:14;;;;;;;8.60;6.63;;;14.00;69.30;;;;;;4974431;28;96688;-56
2021/07/09 00:27:45;;;;;;;7.82;7.03;;;14.10;68.70;;;;;;4960019;28;95332;-55
2021/07/09 00:30:18;;;;;;;7.22;6.53;;;14.10;68.80;;;;;;4955069;28;95690;-54
2021/07/09 00:32:48;;;;;;;8.25;7.45;;;14.10;68.70;;;;;;4954391;28;102377;-56
2021/07/09 00:35:18;;;;;;;7.32;6.40;;;14.20;68.50;;;;;;4957916;28;95885;-57
2021/07/09 00:37:49;;;;;;;8.15;6.88;;;14.20;68.50;;;;;;4961933;28;97462;-57
2021/07/09 00:40:21;;;;;;;;;;;14.20;68.50;;;;;;4960876;28;101576;-55
2021/07/09 00:42:54;;;;;;;8.88;7.70;;;14.30;68.40;;;;;;4959301;28;95725;-57
2021/07/09 00:45:26;;;;;;;8.57;6.80;;;14.30;68.50;;;;;;4947839;28;96058;-55
2021/07/09 00:47:58;;;;;;;8.38;6.80;;;14.30;68.50;;;;;;4978394;28;95904;-55
2021/07/09 00:50:28;;;;;;;7.28;6.55;;;14.40;68.50;;;;;;4975560;28;96697;-57
2021/07/09 00:52:58;;;;;;;7.97;6.95;;;14.40;68.50;;;;;;4981988;28;96440;-56
2021/07/09 00:55:28;;;;;;;7.75;6.50;;;14.50;68.30;;;;;;4976970;28;96993;-55
2021/07/09 00:58:00;;;;;;;9.15;6.70;;;14.50;68.40;;;;;;4983573;28;95982;-57
2021/07/09 01:00:33;;;;;;;6.68;5.97;;;14.50;68.90;;;;;;4975172;27;95753;-55
2021/07/09 01:03:04;;;;;;;7.72;6.05;;;14.60;68.30;;;;;;4979353;28;99963;-55
2021/07/09 01:05:36;;;;;;;7.60;6.55;;;14.50;68.20;;;;;;4973830;28;95376;-56
2021/07/09 01:08:08;;;;;;;6.55;5.85;;;14.60;68.20;;;;;;4979267;28;95760;-58
2021/07/09 01:10:37;;;;;;;7.07;6.38;;;14.60;68.20;;;;;;4981351;28;96783;-55
2021/07/09 01:13:08;;;;;;;6.93;6.10;;;14.60;68.10;;;;;;4984854;28;97087;-51
2021/07/09 01:15:39;;;;;;;6.57;5.88;;;14.70;68.10;;;;;;4979916;27;97110;-59
2021/07/09 01:18:10;;;;;;;;;;;14.70;68.10;;;;;;4984603;28;95735;-56
2021/07/09 01:20:40;;;;;;;8.55;6.63;;;14.80;68.10;;;;;;4984722;28;97816;-56
2021/07/09 01:23:11;;;;;;;6.72;5.95;;;14.80;68.10;;;;;;4975767;28;95933;-55
2021/07/09 01:25:42;;;;;;;6.80;6.10;;;14.90;68.30;;;;;;4984574;28;96911;-57
2021/07/09 01:28:13;;;;;;;6.30;5.50;;;14.90;68.00;;;;;;4982891;28;96944;-55
2021/07/09 01:30:43;;;;;;;5.60;5.10;;;14.90;68.00;;;;;;4978794;28;95856;-53
2021/07/09 01:33:14;;;;;;;5.65;5.15;;;15.00;68.10;;;;;;4982974;28;95868;-55
2021/07/09 01:35:45;;;;;;;;;;;15.10;68.20;;;;;;4985850;28;95963;-54
2021/07/09 01:38:16;;;;;;;5.63;5.10;;;15.10;67.80;;;;;;4977791;28;96320;-55
2021/07/09 01:40:48;;;;;;;6.60;5.90;;;15.20;67.60;;;;;;4981955;28;96257;-56
2021/07/09 01:43:19;;;;;;;6.50;5.10;;;15.30;67.40;;;;;;4974119;28;96186;-55
2021/07/09 01:45:50;;;;;;;6.80;5.80;;;15.30;67.40;;;;;;4973037;27;98446;-56
2021/07/09 01:48:22;;;;;;;6.18;5.55;;;15.40;67.10;;;;;;4981082;28;97018;-57
2021/07/09 01:50:53;;;;;;;6.00;5.40;;;15.40;67.00;;;;;;4999416;28;96133;-59
2021/07/09 01:53:23;;;;;;;5.72;5.05;;;15.40;67.30;;;;;;4981276;28;95821;-57
2021/07/09 01:55:53;;;;;;;5.32;4.82;;;15.50;66.90;;;;;;4978710;28;96197;-57
2021/07/09 01:58:23;;;;;;;5.70;4.75;;;15.50;66.50;;;;;;4977059;28;95858;-55
2021/07/09 02:00:55;;;;;;;5.93;5.20;;;15.50;66.40;;;;;;4991048;28;95909;-58
2021/07/09 02:03:26;;;;;;;5.03;4.53;;;15.50;66.30;;;;;;4960734;28;96990;-56
2021/07/09 02:05:57;;;;;;;5.20;4.70;;;15.60;66.30;;;;;;4964372;28;96269;-56
2021/07/09 02:08:30;;;;;;;4.82;4.22;;;15.60;66.20;;;;;;4959341;28;95615;-58
2021/07/09 02:11:01;;;;;;;;;;;15.60;66.30;;;;;;4963534;28;98613;-55
2021/07/09 02:13:31;;;;;;;5.50;4.57;;;15.70;66.40;;;;;;4956609;28;96615;-54
2021/07/09 02:16:01;;;;;;;7.13;4.82;;;15.80;66.30;;;;;;4957058;28;96953;-58
2021/07/09 02:18:32;;;;;;;5.87;4.83;;;15.80;66.10;;;;;;4976471;28;95941;-55
2021/07/09 02:21:02;;;;;;;4.43;4.03;;;15.90;66.10;;;;;;4965441;28;96140;-54
2021/07/09 02:23:32;;;;;;;4.45;4.00;;;16.00;66.10;;;;;;4958659;28;96886;-53
2021/07/09 02:26:03;;;;;;;5.40;3.78;;;16.00;65.70;;;;;;4963240;28;95344;-56
2021/07/09 02:28:34;;;;;;;4.38;3.97;;;16.10;65.70;;;;;;4961326;28;95813;-55
2021/07/09 02:31:04;;;;;;;5.03;4.53;;;16.10;65.60;;;;;;4968992;28;95529;-57
2021/07/09 02:33:34;;;;;;;4.80;4.32;;;16.10;65.40;;;;;;4964391;28;95895;-56
2021/07/09 02:36:05;;;;;;;4.00;3.60;;;16.10;65.40;;;;;;4959362;28;96902;-55
2021/07/09 02:38:37;;;;;;;4.47;4.07;;;16.20;65.40;;;;;;4964438;28;95780;-58
2021/07/09 02:41:09;;;;;;;4.47;4.07;;;16.20;65.40;;;;;;4960615;28;95959;-55
2021/07/09 02:43:39;;;;;;;;;;;16.30;65.40;;;;;;4954230;28;96614;-56
2021/07/09 02:46:11;;;;;;;4.25;3.85;;;16.40;65.10;;;;;;4947640;28;100875;-55
2021/07/09 02:48:42;;;;;;;3.50;3.20;;;16.40;65.10;;;;;;4960933;28;95713;-55
2021/07/09 02:51:13;;;;;;;3.58;3.22;;;16.40;64.70;;;;;;4960938;28;95675;-56
2021/07/09 02:53:43;;;;;;;5.75;4.25;;;16.50;65.10;;;;;;4964778;28;95964;-55
2021/07/09 02:56:13;;;;;;;3.83;3.40;;;16.60;65.70;;;;;;4960385;28;95911;-57
2021/07/09 02:58:43;;;;;;;3.55;3.25;;;16.70;64.90;;;;;;4963229;28;95738;-58
2021/07/09 03:01:14;;;;;;;4.13;3.10;;;16.70;64.80;;;;;;4953599;28;100765;-56
2021/07/09 03:03:45;;;;;;;3.50;2.78;;;16.80;64.70;;;;;;4972512;28;96567;-54
2021/07/09 03:06:15;;;;;;;4.33;3.30;;;16.90;64.60;;;;;;4958145;28;96893;-56
2021/07/09 03:08:45;;;;;;;3.42;3.13;;;16.90;64.50;;;;;;4978915;28;96012;-58
2021/07/09 03:11:16;;;;;;;3.40;3.03;;;16.90;64.50;;;;;;4959861;28;96085;-55
2021/07/09 03:13:50;;;;;;;3.63;3.33;;;17.00;64.50;;;;;;4962577;28;98200;-55
2021/07/09 03:16:19;;;;;;;3.33;2.92;;;17.10;64.40;;;;;;4953759;28;95913;-56
2021/07/09 03:18:50;;;;;;;3.08;2.78;;;17.10;64.40;;;;;;4957116;28;96126;-55
2021/07/09 03:21:21;;;;;;;2.83;2.60;;;17.20;64.20;;;;;;4955558;28;96985;-55
2021/07/09 03:23:51;;;;;;;2.73;2.50;;;17.30;64.10;;;;;;4960354;28;97530;-54
2021/07/09 03:26:22;;;;;;;3.00;2.70;;;17.30;64.00;;;;;;4957740;28;97997;-56
2021/07/09 03:28:57;;;;;;;2.78;2.28;;;17.30;63.90;;;;;;4963020;28;96120;-53
2021/07/09 03:31:32;;;;;;;2.70;2.50;;;17.40;63.90;;;;;;4954490;28;96199;-51
2021/07/09 03:34:04;;;;;;;2.38;2.17;;;17.40;63.80;;;;;;4960670;28;95896;-51
2021/07/09 03:36:36;;;;;;;2.60;2.40;;;17.50;63.80;;;;;;4952572;28;95923;-53
2021/07/09 03:39:08;;;;;;;2.60;2.17;;;17.50;63.70;;;;;;4960946;28;96878;-54
2021/07/09 03:41:41;;;;;;;2.63;2.42;;;17.50;63.70;;;;;;4958414;28;95301;-54
2021/07/09 03:44:12;;;;;;;2.30;2.10;;;17.50;63.80;;;;;;4954338;28;95988;-53
2021/07/09 03:46:43;;;;;;;2.42;2.22;;;17.50;63.80;;;;;;4951614;28;96013;-55
2021/07/09 03:49:14;;;;;;;2.95;2.67;;;17.60;63.80;;;;;;4961198;28;95284;-55
2021/07/09 03:51:44;;;;;;;2.25;2.05;;;17.60;63.60;;;;;;4956596;28;95392;-57
2021/07/09 03:54:15;;;;;;;2.15;1.90;;;17.60;63.70;;;;;;4953816;28;97324;-55
2021/07/09 03:56:46;;;;;;;2.88;1.90;;;17.60;63.80;;;;;;4960084;28;95595;-55
2021/07/09 03:59:17;;;;;;;3.10;1.95;;;17.60;63.80;;;;;;4958149;28;95901;-56
2021/07/09 04:01:49;;;;;;;2.30;2.10;;;17.60;63.80;;;;;;4956417;28;95955;-55
2021/07/09 04:04:19;;;;;;;2.47;2.28;;;17.70;63.70;;;;;;4959128;28;95932;-52
2021/07/09 04:06:49;;;;;;;2.33;1.98;;;17.70;63.70;;;;;;4960464;28;96262;-52
2021/07/09 04:09:18;;;;;;;2.60;2.28;;;17.70;63.70;;;;;;4952968;28;96503;-55
2021/07/09 04:11:50;;;;;;;1.70;1.60;;;17.70;63.60;;;;;;4958469;28;96905;-54
2021/07/09 04:14:20;;;;;;;1.80;1.67;;;17.80;63.70;;;;;;4958273;28;96815;-55
2021/07/09 04:16:51;;;;;;;2.53;2.25;;;17.80;63.70;;;;;;4954580;28;96003;-50
2021/07/09 04:19:23;;;;;;;1.92;1.77;;;17.90;63.70;;;;;;4959022;28;95844;-53
2021/07/09 04:21:53;;;;;;;1.38;1.27;;;17.90;63.60;;;;;;4961365;28;96164;-52
2021/07/09 04:24:23;;;;;;;2.47;1.95;;;17.90;63.60;;;;;;4957054;28;96420;-57
2021/07/09 04:26:54;;;;;;;2.00;1.73;;;18.00;63.70;;;;;;4955113;28;96431;-58
2021/07/09 04:29:25;;;;;;;2.10;1.95;;;18.00;63.60;;;;;;4958053;28;102244;-55
2021/07/09 04:31:57;;;;;;;2.72;1.55;;;18.00;63.60;;;;;;4955841;28;96851;-55
2021/07/09 04:34:27;;;;;;;1.60;1.50;;;18.00;63.60;;;;;;4957445;28;96361;-55
2021/07/09 04:36:58;;;;;;;2.85;1.70;;;18.10;63.30;;;;;;4960770;28;95999;-56
2021/07/09 04:39:29;;;;;;;2.30;1.90;;;18.10;63.20;;;;;;4959000;28;95979;-53
2021/07/09 04:42:00;;;;;;;2.78;2.33;;;18.10;63.40;;;;;;4953729;28;95752;-55
2021/07/09 04:44:32;;;;;;;3.67;2.72;;;18.10;63.30;;;;;;4945736;28;96719;-55
2021/07/09 04:47:04;;;;;;;5.55;3.13;;;18.10;63.40;;;;;;4955155;28;95812;-55
2021/07/09 04:49:36;;;;;;;3.17;2.70;;;18.10;63.50;;;;;;4958099;28;100180;-55
2021/07/09 04:52:07;;;;;;;4.57;2.67;;;18.10;63.60;;;;;;4959071;28;96240;-57
2021/07/09 04:54:36;;;;;;;2.72;2.53;;;18.20;63.50;;;;;;4957407;28;95848;-61
2021/07/09 04:57:07;;;;;;;2.63;2.10;;;18.20;63.50;;;;;;4973223;28;95929;-60
2021/07/09 04:59:41;;;;;;;2.88;2.33;;;18.10;63.50;;;;;;4951992;28;96512;-55
2021/07/09 05:02:12;;;;;;;4.82;2.45;;;18.10;63.50;;;;;;4953402;28;96222;-53
2021/07/09 05:04:42;;;;;;;2.90;2.70;;;18.20;63.60;;;;;;4956593;28;96803;-58
2021/07/09 05:07:13;;;;;;;3.90;3.17;;;18.20;63.60;;;;;;4960674;28;95909;-62
2021/07/09 05:09:43;;;;;;;4.07;2.90;;;18.20;63.60;;;;;;4959094;28;95426;-56
2021/07/09 05:12:13;;;;;;;3.70;2.80;;;18.20;63.60;;;;;;4957221;28;96825;-51
2021/07/09 05:14:43;;;;;;;6.05;2.45;;;18.30;63.80;;;;;;4955827;28;96430;-53
2021/07/09 05:17:13;;;;;;;4.72;2.53;;;18.30;64.00;;;;;;4947730;28;95682;-60
2021/07/09 05:19:44;;;;;;;;;;;18.30;63.90;;;;;;4960801;28;95913;-62
2021/07/09 05:22:14;;;;;;;4.63;3.40;;;18.40;63.80;;;;;;4990521;28;95622;-61
2021/07/09 05:24:46;;;;;;;4.68;3.75;;;18.40;63.60;;;;;;4959480;28;95848;-55
2021/07/09 05:27:16;;;;;;;8.60;3.38;;;18.50;63.60;;;;;;4955150;28;95847;-52
2021/07/09 05:29:47;;;;;;;4.70;3.60;;;18.50;63.60;;;;;;4961779;28;96240;-55
2021/07/09 05:32:23;;;;;;;4.95;3.72;;;18.50;63.50;;;;;;4946080;28;95903;-62
2021/07/09 05:34:54;;;;;;;6.45;4.65;;;18.50;63.50;;;;;;4956331;28;96701;-55
2021/07/09 05:37:26;;;;;;;5.53;4.32;;;18.60;63.60;;;;;;4956607;28;105148;-55
2021/07/09 05:39:57;;;;;;;6.45;4.60;;;18.60;63.40;;;;;;4960877;28;96230;-60
2021/07/09 05:42:29;;;;;;;4.75;4.30;;;18.70;63.40;;;;;;4954947;28;96183;-61
2021/07/09 05:44:59;;;;;;;;;;;18.70;63.30;;;;;;4949111;28;96093;-61
2021/07/09 05:47:31;;;;;;;6.38;4.13;;;18.70;63.30;;;;;;4957130;28;96199;-55
2021/07/09 05:50:02;;;;;;;4.97;3.92;;;18.80;63.40;;;;;;4955798;28;95927;-52
2021/07/09 05:52:32;;;;;;;4.63;4.23;;;18.80;63.30;;;;;;4953401;28;96137;-56
2021/07/09 05:55:06;;;;;;;5.47;4.43;;;18.80;63.30;;;;;;4960741;28;96062;-60
2021/07/09 05:57:37;;;;;;;6.38;4.03;;;18.80;63.30;;;;;;4958740;28;96815;-54
2021/07/09 06:00:09;;;;;;;5.05;4.05;;;18.90;63.40;;;;;;4964981;28;96829;-55
2021/07/09 06:02:41;;;;;;;4.57;3.83;;;18.90;63.30;;;;;;4959715;28;96123;-56
2021/07/09 06:05:11;;;;;;;5.93;4.20;;;18.90;63.20;;;;;;4959918;28;95861;-58
2021/07/09 06:07:41;;;;;;;6.95;3.83;;;18.90;63.10;;;;;;4955570;28;95806;-58
2021/07/09 06:10:12;;;;;;;5.35;4.32;;;18.90;63.00;;;;;;4962637;28;95841;-59
2021/07/09 06:12:41;;;;;;;5.03;3.60;;;19.00;63.00;;;;;;4959729;28;95789;-55
2021/07/09 06:15:12;;;;;;;4.03;3.35;;;19.00;63.00;;;;;;4961675;28;95918;-56
2021/07/09 06:17:43;;;;;;;4.00;3.60;;;19.10;62.90;;;;;;4960012;28;96905;-63
2021/07/09 06:20:15;;;;;;;4.85;3.40;;;19.10;62.70;;;;;;4962729;28;96003;-56
2021/07/09 06:22:48;;;;;;;5.05;3.65;;;19.10;62.60;;;;;;4956473;28;95840;-56
2021/07/09 06:25:19;;;;;;;4.38;3.33;;;19.10;62.70;;;;;;4958612;28;96331;-56
2021/07/09 06:27:51;;;;;;;4.40;2.70;;;19.00;62.80;;;;;;4962959;28;96439;-57
2021/07/09 06:30:21;;;;;;;3.70;3.00;;;19.00;63.10;;;;;;4957386;28;95403;-57
2021/07/09 06:32:51;;;;;;;5.32;3.80;;;19.00;63.00;;;;;;4963046;28;95499;-55
2021/07/09 06:35:21;;;;;;;3.15;2.80;;;19.10;63.00;;;;;;4959094;28;96477;-55
2021/07/09 06:37:51;;;;;;;3.17;2.88;;;19.10;63.00;;;;;;4943194;28;96333;-55
2021/07/09 06:40:22;;;;;;;3.33;3.00;;;19.10;62.90;;;;;;4954952;28;95481;-55
2021/07/09 06:42:53;;;;;;;3.28;2.92;;;19.10;63.50;;;;;;4957477;28;95778;-56
2021/07/09 06:45:26;;;;;;;4.07;2.65;;;19.20;62.80;;;;;;4943946;28;96041;-57
2021/07/09 06:47:58;;;;;;;4.00;3.33;;;19.20;62.80;;;;;;4962071;28;102347;-52
2021/07/09 06:50:29;;;;;;;5.47;3.28;;;19.10;62.80;;;;;;4960236;28;95948;-55
2021/07/09 06:53:01;;;;;;;4.25;3.05;;;19.00;63.00;;;;;;4962794;28;95763;-56
2021/07/09 06:55:33;;;;;;;5.25;3.80;;;18.90;63.10;;;;;;4955707;28;95830;-56
2021/07/09 06:58:04;;;;;;;7.35;5.22;;;18.90;63.20;;;;;;4958003;28;96973;-57
2021/07/09 07:00:35;;;;;;;7.43;6.25;;;18.90;63.40;;;;;;4954923;28;96887;-55
2021/07/09 07:03:07;;;;;;;7.72;6.35;;;18.70;63.50;;;;;;4961413;28;96062;-56
2021/07/09 07:05:38;;;;;;;8.65;6.28;;;18.80;63.70;;;;;;4960047;28;95852;-55
2021/07/09 07:08:19;;;;;;;9.98;6.40;;;18.80;63.70;;;;;;4962309;28;96640;-56
2021/07/09 07:10:51;;;;;;;8.05;6.32;;;18.80;63.60;;;;;;4958211;28;95911;-55
2021/07/09 07:13:25;;;;;;;9.48;6.72;;;18.90;63.50;;;;;;4956721;28;95332;-56
2021/07/09 07:15:56;;;;;;;9.82;6.45;;;18.90;63.50;;;;;;4951531;28;96147;-57
2021/07/09 07:18:27;;;;;;;11.23;6.57;;;18.90;63.40;;;;;;4962839;28;97519;-56
2021/07/09 07:20:57;;;;;;;6.10;5.47;;;18.90;63.40;;;;;;4959577;28;95958;-55
2021/07/09 07:23:28;;;;;;;8.05;5.95;;;18.90;63.40;;;;;;4963327;28;96416;-56
2021/07/09 07:25:59;;;;;;;;;;;18.90;63.50;;;;;;4958978;28;96476;-58
2021/07/09 07:28:30;;;;;;;6.80;5.15;;;18.80;63.50;;;;;;4960927;28;95892;-55
2021/07/09 07:31:10;;;;;;;7.00;5.47;;;18.80;63.50;;;;;;4949289;28;98830;-54
2021/07/09 07:33:41;;;;;;;6.95;5.43;;;18.80;63.50;;;;;;4960104;28;96267;-56
2021/07/09 07:36:16;;;;;;;8.45;6.25;;;18.80;63.50;;;;;;4958549;28;95996;-56
2021/07/09 07:38:49;;;;;;;7.43;6.15;;;18.70;63.70;;;;;;4962540;28;96909;-55
2021/07/09 07:41:21;;;;;;;7.00;5.63;;;18.70;63.80;;;;;;4960301;28;95875;-54
2021/07/09 07:43:52;;;;;;;6.45;5.65;;;18.70;63.90;;;;;;4954918;28;96282;-55
2021/07/09 07:46:27;;;;;;;8.23;5.47;;;18.70;63.70;;;;;;4947358;28;95956;-54
2021/07/09 07:48:58;;;;;;;;;;;18.70;63.70;;;;;;4959639;28;95719;-57
2021/07/09 07:51:29;;;;;;;10.20;6.05;;;18.70;64.10;;;;;;4960633;28;96006;-56
2021/07/09 07:54:00;;;;;;;5.88;5.10;;;18.60;64.10;;;;;;4961619;28;95343;-54
2021/07/09 07:56:30;;;;;;;7.80;5.88;;;18.60;63.90;;;;;;4958272;28;97797;-55
2021/07/09 07:59:01;;;;;;;7.20;6.25;;;18.60;64.00;;;;;;4962160;28;95904;-54
2021/07/09 08:01:33;;;;;;;8.40;6.03;;;18.60;63.90;;;;;;4953094;28;95973;-55
2021/07/09 08:04:06;;;;;;;6.30;5.60;;;18.50;63.80;;;;;;4956406;28;95862;-57
2021/07/09 08:06:39;;;;;;;7.70;5.75;;;18.50;63.70;;;;;;4960752;28;97027;-56
2021/07/09 08:09:12;;;;;;;7.63;5.30;;;18.50;63.80;;;;;;4961002;28;97680;-55
2021/07/09 08:11:42;;;;;;;;;;;18.50;63.70;;;;;;4961076;28;96559;-58
2021/07/09 08:14:13;;;;;;;7.67;6.27;;;18.40;64.00;;;;;;4959763;28;95809;-56
2021/07/09 08:16:48;;;;;;;6.65;5.82;;;18.30;64.30;;;;;;4955359;28;97980;-54
2021/07/09 08:19:21;;;;;;;7.78;5.45;;;18.30;64.40;;;;;;4961128;28;96727;-51
2021/07/09 08:21:52;;;;;;;5.70;4.65;;;18.30;64.40;;;;;;4964132;28;95899;-53
2021/07/09 08:24:23;;;;;;;7.35;5.20;;;18.30;64.40;;;;;;4961433;28;95874;-55
2021/07/09 08:26:53;;;;;;;6.88;5.80;;;18.20;64.30;;;;;;4963737;28;95817;-55
2021/07/09 08:29:27;;;;;;;5.20;4.70;;;18.20;64.30;;;;;;4961415;28;95695;-54
2021/07/09 08:31:59;;;;;;;5.80;4.80;;;18.20;64.30;;;;;;4960069;28;97595;-54
2021/07/09 08:34:29;;;;;;;8.05;5.47;;;18.20;64.30;;;;;;4962890;28;95779;-54
2021/07/09 08:36:59;;;;;;;6.35;5.70;;;18.20;64.40;;;;;;4962921;28;95847;-56
2021/07/09 08:39:34;;;;;;;6.97;4.60;;;18.10;64.40;;;;;;4960623;28;95808;-57
2021/07/09 08:42:06;;;;;;;7.22;5.35;;;18.10;64.40;;;;;;4957470;28;97068;-61
2021/07/09 08:44:39;;;;;;;9.82;5.18;;;18.10;64.80;;;;;;4945776;28;96254;-61
2021/07/09 08:47:12;;;;;;;5.63;5.03;;;18.10;64.80;;;;;;4956703;28;95969;-62
2021/07/09 08:49:46;;;;;;;7.85;5.80;;;18.10;64.80;;;;;;4957015;28;96598;-59
2021/07/09 08:52:16;;;;;;;5.80;4.70;;;18.00;65.40;;;;;;4961275;28;95681;-56
2021/07/09 08:54:46;;;;;;;7.78;6.07;;;17.90;64.80;;;;;;4958791;28;96073;-57
2021/07/09 08:57:16;;;;;;;9.07;6.43;;;17.90;65.00;;;;;;4961307;28;95871;-55
2021/07/09 08:59:46;;;;;;;10.80;7.95;;;17.90;65.00;;;;;;4954029;28;96092;-60
2021/07/09 09:02:27;;;;;;;14.13;8.73;;;17.80;65.00;;;;;;4954671;28;98680;-59
2021/07/09 09:04:58;;;;;;;20.53;12.17;;;17.80;65.40;;;;;;4959666;28;95805;-62
2021/07/09 09:07:29;;;;;;;22.50;12.57;;;17.80;65.40;;;;;;4961492;28;95946;-57
2021/07/09 09:10:01;;;;;;;25.58;14.85;;;17.80;65.40;;;;;;4958504;28;97999;-60
2021/07/09 09:12:46;;;;;;;29.60;18.80;;;17.80;65.50;;;;;;4959619;28;95898;-60
2021/07/09 09:15:24;;;;;;;31.02;19.13;;;17.70;65.60;;;;;;4953026;28;95357;-57
2021/07/09 09:17:55;;;;;;;35.90;22.00;;;17.70;65.60;;;;;;4974915;28;102340;-60
2021/07/09 09:20:29;;;;;;;30.95;21.48;;;17.60;65.70;;;;;;4975953;28;95969;-60
2021/07/09 09:23:01;;;;;;;32.17;21.73;;;17.60;65.80;;;;;;4979905;28;96417;-58
2021/07/09 09:25:33;;;;;;;36.50;22.52;;;17.60;65.90;;;;;;4977545;28;96312;-58
2021/07/09 09:28:09;;;;;;;39.22;23.00;;;17.60;66.00;;;;;;4981085;28;96172;-58
2021/07/09 09:30:41;;;;;;;36.47;21.85;;;17.60;66.10;;;;;;4972598;28;95769;-60
2021/07/09 09:33:13;;;;;;;33.05;22.00;;;17.60;66.10;;;;;;4977240;28;95901;-60
2021/07/09 09:35:44;;;;;;;;;;;17.50;66.10;;;;;;4978732;28;99948;-60
2021/07/09 09:38:20;;;;;;;32.10;20.40;;;17.50;66.20;;;;;;4984086;28;97400;-60
2021/07/09 09:40:51;;;;;;;27.65;19.73;;;17.40;66.20;;;;;;4980384;28;96653;-56
2021/07/09 09:43:25;;;;;;;27.38;18.95;;;17.40;66.30;;;;;;4992731;28;96371;-60
2021/07/09 09:46:11;;;;;;;28.98;20.35;;;17.40;66.40;;;;;;4968877;28;96173;-58
2021/07/09 09:48:47;;;;;;;29.33;18.27;;;17.30;66.30;;;;;;4980825;28;96407;-58
2021/07/09 09:51:34;;;;;;;30.75;18.65;;;17.40;66.50;;;;;;4975181;28;95754;-60
2021/07/09 09:54:07;;;;;;;30.50;19.27;;;17.30;66.40;;;;;;4982468;28;96073;-60
2021/07/09 09:56:46;;;;;;;26.92;16.50;;;17.30;66.40;;;;;;4979162;28;96288;-61
2021/07/09 09:59:22;;;;;;;28.02;16.98;;;17.30;66.40;;;;;;4982806;28;98163;-58
2021/07/09 10:01:54;;;;;;;25.42;16.15;;;17.30;66.40;;;;;;4976023;28;96098;-56
2021/07/09 10:04:27;;;;;;;27.50;15.90;;;17.30;66.50;;;;;;4998147;28;95728;-59
2021/07/09 10:06:57;;;;;;;;;;;17.30;66.50;;;;;;4984455;28;96037;-60
2021/07/09 10:09:30;;;;;;;20.23;13.97;;;17.20;66.40;;;;;;4989176;28;96311;-59
2021/07/09 10:12:03;;;;;;;22.38;14.32;;;17.10;66.50;;;;;;4984139;28;96133;-57
2021/07/09 10:14:35;;;;;;;19.13;13.80;;;17.10;66.90;;;;;;4970944;28;97825;-57
2021/07/09 10:17:08;;;;;;;25.13;18.55;;;17.00;66.90;;;;;;4969452;28;95676;-59
2021/07/09 10:19:41;;;;;;;26.88;18.23;;;16.90;67.00;;;;;;4977528;28;96554;-61
2021/07/09 10:22:32;;;;;;;24.23;17.17;;;16.90;67.10;;;;;;4970381;28;95898;-58
2021/07/09 10:25:04;;;;;;;25.57;17.50;;;16.90;67.30;;;;;;4988338;28;95354;-61
2021/07/09 10:27:35;;;;;;;21.30;16.55;;;16.80;67.30;;;;;;4978147;28;95857;-60
2021/07/09 10:30:10;;;;;;;23.70;17.77;;;16.80;67.20;;;;;;4968503;28;98593;-58
2021/07/09 10:32:43;;;;;;;20.77;16.42;;;16.80;67.10;;;;;;4969453;28;96316;-60
2021/07/09 10:35:33;;;;;;;20.83;15.57;;;16.80;67.10;;;;;;4974043;28;95182;-56
2021/07/09 10:38:17;;;;;;;23.90;16.98;;;16.80;67.00;;;;;;4967906;28;97402;-57
2021/07/09 10:40:48;;;;;;;20.10;15.68;;;16.70;66.90;;;;;;4985611;28;96663;-61
2021/07/09 10:43:20;;;;;;;21.02;14.77;;;16.70;67.10;;;;;;4968195;28;95808;-56
2021/07/09 10:45:50;;;;;;;;;;;16.70;67.10;;;;;;4971870;28;95865;-58
2021/07/09 10:48:22;;;;;;;17.80;13.73;;;16.70;67.20;;;;;;4971611;28;95535;-57
2021/07/09 10:50:54;;;;;;;;;;;16.70;67.20;;;;;;4977626;28;96542;-60
2021/07/09 10:53:25;;;;;;;21.58;14.05;;;16.70;67.30;;;;;;4979901;28;95966;-54
2021/07/09 10:56:00;;;;;;;16.63;13.13;;;16.60;67.60;;;;;;4979764;28;95857;-55
2021/07/09 10:58:41;;;;;;;18.10;12.90;;;16.50;67.50;;;;;;4973238;28;96152;-58
2021/07/09 11:01:28;;;;;;;19.67;13.30;;;16.40;67.70;;;;;;4983537;28;98010;-53
2021/07/09 11:04:14;;;;;;;15.82;13.00;;;16.40;67.80;;;;;;4970268;28;95673;-55
2021/07/09 11:06:50;;;;;;;16.73;13.00;;;16.30;67.90;;;;;;4979265;28;95251;-55
2021/07/09 11:09:38;;;;;;;17.13;12.57;;;16.20;67.90;;;;;;4972488;28;97592;-55
2021/07/09 11:12:29;;;;;;;15.20;12.27;;;16.20;67.90;;;;;;4970627;28;95885;-60
2021/07/09 11:15:05;;;;;;;13.00;11.05;;;16.20;68.00;;;;;;4977058;28;95771;-60
2021/07/09 11:17:44;;;;;;;13.77;12.07;;;16.10;68.00;;;;;;4980455;27;95971;-54
2021/07/09 11:20:20;;;;;;;15.75;12.95;;;16.10;68.00;;;;;;4981046;28;95719;-52
2021/07/09 11:23:05;;;;;;;13.00;11.30;;;16.10;68.10;;;;;;4982841;28;96622;-59
2021/07/09 11:25:41;;;;;;;13.60;11.05;;;16.00;68.10;;;;;;4969099;28;95881;-55
2021/07/09 11:28:29;;;;;;;15.80;12.00;;;16.00;68.00;;;;;;4980052;28;95600;-60
2021/07/09 11:31:04;;;;;;;12.15;9.70;;;15.90;68.10;;;;;;4980036;28;95707;-59
2021/07/09 11:33:34;;;;;;;11.80;9.50;;;15.90;68.10;;;;;;4978100;28;97620;-59
2021/07/09 11:36:21;;;;;;;12.05;10.35;;;15.80;68.10;;;;;;4979924;28;95411;-60
2021/07/09 11:39:11;;;;;;;14.38;10.25;;;15.80;68.10;;;;;;4982842;28;95677;-57
2021/07/09 11:42:13;;;;;;;12.35;10.00;;;15.80;68.20;;;;;;4980651;28;95766;-56
2021/07/09 11:44:47;;;;;;;11.63;9.68;;;15.70;68.30;;;;;;4972536;28;97190;-59
2021/07/09 11:47:26;;;;;;;11.63;10.02;;;15.70;68.50;;;;;;4975608;28;95470;-56
2021/07/09 11:50:00;;;;;;;15.55;10.07;;;15.60;68.50;;;;;;4981516;28;95740;-56
2021/07/09 11:52:35;;;;;;;12.15;9.13;;;15.60;68.50;;;;;;4974573;28;95947;-55
2021/07/09 11:55:10;;;;;;;13.30;9.77;;;15.60;68.70;;;;;;4978287;28;95854;-55
2021/07/09 11:57:41;;;;;;;11.13;8.75;;;15.50;68.70;;;;;;4970320;28;95702;-53
2021/07/09 12:00:16;;;;;;;11.45;10.25;;;15.50;68.70;;;;;;4980993;28;96053;-55
2021/07/09 12:02:52;;;;;;;10.95;9.15;;;15.50;68.90;;;;;;4972795;28;96799;-56
2021/07/09 12:05:25;;;;;;;13.40;9.93;;;15.40;68.70;;;;;;4968111;28;96041;-56
2021/07/09 12:07:59;;;;;;;11.45;9.43;;;15.40;68.80;;;;;;4982948;28;95838;-57
2021/07/09 12:10:32;;;;;;;9.70;8.30;;;15.40;68.80;;;;;;4957824;28;96034;-56
2021/07/09 12:13:07;;;;;;;11.07;8.55;;;15.40;68.80;;;;;;4973202;28;96016;-55
2021/07/09 12:15:42;;;;;;;11.20;9.38;;;15.40;68.70;;;;;;4966930;28;96002;-54
2021/07/09 12:18:15;;;;;;;11.88;8.68;;;15.40;68.90;;;;;;4971397;28;95866;-52
2021/07/09 12:20:48;;;;;;;11.02;8.77;;;15.30;68.90;;;;;;4966815;28;95849;-55
2021/07/09 12:23:20;;;;;;;9.93;8.57;;;15.30;69.00;;;;;;4973314;28;95782;-53
2021/07/09 12:25:54;;;;;;;10.77;9.25;;;15.20;68.90;;;;;;4978935;28;95796;-57
2021/07/09 12:28:29;;;;;;;11.60;9.32;;;15.20;68.80;;;;;;4982245;28;95713;-56
2021/07/09 12:31:02;;;;;;;10.88;9.02;;;15.20;68.90;;;;;;4972144;28;95356;-58
2021/07/09 12:33:40;;;;;;;9.68;8.68;;;15.20;69.20;;;;;;4967593;28;96239;-59
2021/07/09 12:36:12;;;;;;;9.95;8.77;;;15.20;69.00;;;;;;4967260;28;95856;-57
2021/07/09 12:38:55;;;;;;;9.63;8.50;;;15.10;68.90;;;;;;4965328;28;95999;-56
2021/07/09 12:41:34;;;;;;;10.52;9.43;;;15.10;69.10;;;;;;4974180;28;95228;-58
2021/07/09 12:44:09;;;;;;;9.57;7.70;;;15.00;69.00;;;;;;4969097;28;95410;-58
2021/07/09 12:46:44;;;;;;;10.75;9.15;;;15.00;69.10;;;;;;4985865;28;98620;-58
2021/07/09 12:49:23;;;;;;;11.52;9.68;;;15.00;69.10;;;;;;4985774;28;96031;-56
2021/07/09 12:52:03;;;;;;;10.20;8.93;;;15.00;69.20;;;;;;4972459;28;95703;-59
2021/07/09 12:54:47;;;;;;;12.70;10.13;;;14.90;69.10;;;;;;4940064;28;96444;-57
2021/07/09 12:57:23;;;;;;;11.77;8.45;;;14.90;69.60;;;;;;4969557;28;96471;-57
2021/07/09 13:00:00;;;;;;;10.45;9.45;;;15.00;70.10;;;;;;4977856;28;95944;-56
2021/07/09 13:02:31;;;;;;;10.10;9.10;;;15.10;69.90;;;;;;4976027;27;95378;-52
2021/07/09 13:05:03;;;;;;;11.43;8.90;;;15.30;69.70;;;;;;4979732;28;96150;-55
2021/07/09 13:07:32;;;;;;;10.65;8.52;;;15.40;69.60;;;;;;4984324;28;96216;-54
2021/07/09 13:10:03;;;;;;;9.75;8.20;;;15.60;69.40;;;;;;4977504;28;96340;-54
2021/07/09 13:12:35;;;;;;;11.05;8.90;;;15.70;69.00;;;;;;4980932;28;97003;-55
2021/07/09 13:15:09;;;;;;;13.57;8.38;;;15.90;68.70;;;;;;4981335;28;95459;-55